createdAt,value
2019-04-03T00:00:39.061Z,96738.53
2019-04-03T00:03:11.136Z,96734.05
2019-04-03T00:05:43.180Z,96733.34
2019-04-03T00:08:15.209Z,96730.28
2019-04-03T00:10:48.149Z,96726.39
2019-04-03T00:13:20.392Z,96728.15
2019-04-03T00:15:52.850Z,96730.25
2019-04-03T00:18:25.031Z,96728.82
2019-04-03T00:20:57.166Z,96724.15
2019-04-03T00:23:29.452Z,96725.25
2019-04-03T00:26:01.941Z,96726.16
2019-04-03T00:28:34.047Z,96730.35
2019-04-03T00:31:07.088Z,96728.27
2019-04-03T00:33:40.148Z,96721.13
2019-04-03T00:36:12.519Z,96718.03
2019-04-03T00:38:44.625Z,96724.78
2019-04-03T00:41:16.805Z,96725.48
2019-04-03T00:43:48.915Z,96719.64
2019-04-03T00:46:21.361Z,96717.09
2019-04-03T00:48:55.332Z,96711.77
2019-04-03T00:51:27.925Z,96706.15
2019-04-03T00:54:00.097Z,96705.11
2019-04-03T00:56:32.525Z,96707.87
2019-04-03T00:59:04.955Z,96702.69
2019-04-03T01:01:37.055Z,96699.48
2019-04-03T01:04:09.067Z,96699.80
2019-04-03T01:06:41.159Z,96697.38
2019-04-03T01:09:13.249Z,96701.27
2019-04-03T01:11:45.476Z,96702.41
2019-04-03T01:14:17.543Z,96700.68
2019-04-03T01:16:49.886Z,96702.30
2019-04-03T01:19:22.010Z,96700.37
2019-04-03T01:21:54.349Z,96696.83
2019-04-03T01:24:26.698Z,96701.35
2019-04-03T01:26:59.050Z,96703.75
2019-04-03T01:29:31.077Z,96706.66
2019-04-03T01:32:03.168Z,96711.16
2019-04-03T01:34:35.590Z,96706.98
2019-04-03T01:37:11.169Z,96703.92
2019-04-03T01:39:43.591Z,96697.96
2019-04-03T01:42:15.619Z,96694.27
2019-04-03T01:44:48.048Z,96688.63
2019-04-03T01:47:20.144Z,96686.77
2019-04-03T01:49:52.248Z,96682.58
2019-04-03T01:52:25.259Z,96688.38
2019-04-03T01:54:57.402Z,96690.75
2019-04-03T01:57:29.523Z,96687.88
2019-04-03T02:00:01.959Z,96681.80
2019-04-03T02:02:34.364Z,96682.16
2019-04-03T02:05:07.873Z,96671.85
2019-04-03T02:07:40.635Z,96679.11
2019-04-03T02:10:24.282Z,96682.97
2019-04-03T02:12:56.386Z,96679.26
2019-04-03T02:15:28.501Z,96682.56
2019-04-03T02:18:00.746Z,96678.75
2019-04-03T02:20:33.227Z,96673.02
2019-04-03T02:23:05.257Z,96671.33
2019-04-03T02:25:37.295Z,96673.31
2019-04-03T02:28:09.888Z,96671.06
2019-04-03T02:30:44.786Z,96674.34
2019-04-03T02:33:16.420Z,96669.74
2019-04-03T02:35:48.883Z,96670.51
2019-04-03T02:38:22.546Z,96670.55
2019-04-03T02:40:54.963Z,96677.55
2019-04-03T02:43:27.057Z,96666.46
2019-04-03T02:45:59.270Z,96663.84
2019-04-03T02:48:31.431Z,96668.18
2019-04-03T02:51:03.453Z,96666.41
2019-04-03T02:53:36.008Z,96661.63
2019-04-03T02:56:11.575Z,96662.69
2019-04-03T02:58:42.463Z,96670.73
2019-04-03T03:01:14.550Z,96664.02
2019-04-03T03:03:49.439Z,96669.77
2019-04-03T03:06:20.607Z,96665.40
2019-04-03T03:08:53.601Z,96666.10
2019-04-03T03:11:27.244Z,96667.97
2019-04-03T03:14:00.715Z,96670.64
2019-04-03T03:16:33.691Z,96674.13
2019-04-03T03:19:06.241Z,96673.59
2019-04-03T03:21:43.896Z,96674.47
2019-04-03T03:24:15.555Z,96674.70
2019-04-03T03:26:48.578Z,96672.91
2019-04-03T03:29:26.363Z,96676.76
2019-04-03T03:32:09.000Z,96673.98
2019-04-03T03:34:47.259Z,96670.34
2019-04-03T03:37:05.149Z,96670.36
2019-04-03T03:39:38.333Z,96668.14
2019-04-03T03:42:10.830Z,96669.06
2019-04-03T03:44:45.478Z,96669.87
2019-04-03T03:47:17.460Z,96672.02
2019-04-03T03:49:51.049Z,96673.43
2019-04-03T03:52:25.049Z,96670.83
2019-04-03T03:54:57.289Z,96667.50
2019-04-03T03:57:30.315Z,96667.80
2019-04-03T04:00:02.338Z,96667.53
2019-04-03T04:02:36.725Z,96659.02
2019-04-03T04:05:10.675Z,96657.50
2019-04-03T04:07:42.273Z,96651.70
2019-04-03T04:10:14.506Z,96652.45
2019-04-03T04:12:47.632Z,96652.70
2019-04-03T04:15:20.290Z,96647.34
2019-04-03T04:17:54.483Z,96638.84
2019-04-03T04:20:26.695Z,96634.75
2019-04-03T04:22:59.689Z,96627.75
2019-04-03T04:25:32.257Z,96626.27
2019-04-03T04:28:04.695Z,96623.69
2019-04-03T04:30:36.854Z,96635.06
2019-04-03T04:33:09.034Z,96632.48
2019-04-03T04:35:42.199Z,96625.39
2019-04-03T04:38:14.238Z,96621.56
2019-04-03T04:40:46.167Z,96617.69
2019-04-03T04:43:18.097Z,96614.55
2019-04-03T04:45:50.467Z,96622.74
2019-04-03T04:48:22.567Z,96627.74
2019-04-03T04:50:55.560Z,96629.09
2019-04-03T04:53:29.429Z,96624.91
2019-04-03T04:56:01.411Z,96620.23
2019-04-03T04:58:33.910Z,96626.22
2019-04-03T05:01:06.021Z,96629.86
2019-04-03T05:03:38.448Z,96632.36
2019-04-03T05:06:10.410Z,96633.67
2019-04-03T05:08:42.420Z,96635.30
2019-04-03T05:11:15.097Z,96635.16
2019-04-03T05:13:47.253Z,96637.78
2019-04-03T05:16:20.812Z,96641.73
2019-04-03T05:18:53.002Z,96637.69
2019-04-03T05:21:25.600Z,96640.26
2019-04-03T05:24:10.166Z,96641.00
2019-04-03T05:26:32.795Z,96644.48
2019-04-03T05:29:05.118Z,96646.09
2019-04-03T05:31:38.948Z,96642.35
2019-04-03T05:34:13.294Z,96646.51
2019-04-03T05:36:46.842Z,96649.02
2019-04-03T05:39:19.574Z,96655.55
2019-04-03T05:41:51.594Z,96658.48
2019-04-03T05:44:24.146Z,96660.58
2019-04-03T05:46:58.970Z,96653.86
2019-04-03T05:49:30.229Z,96658.58
2019-04-03T05:52:04.091Z,96656.52
2019-04-03T05:54:39.404Z,96661.77
2019-04-03T05:57:11.914Z,96658.62
2019-04-03T05:59:57.968Z,96660.78
2019-04-03T06:02:20.994Z,96658.91
2019-04-03T06:04:54.028Z,96657.73
2019-04-03T06:07:26.423Z,96653.45
2019-04-03T06:09:59.184Z,96660.81
2019-04-03T06:12:32.018Z,96662.37
2019-04-03T06:15:04.508Z,96665.13
2019-04-03T06:17:37.016Z,96663.78
2019-04-03T06:20:11.198Z,96667.90
2019-04-03T06:22:43.467Z,96668.63
2019-04-03T06:25:15.726Z,96666.72
2019-04-03T06:27:48.027Z,96666.22
2019-04-03T06:30:20.435Z,96663.37
2019-04-03T06:32:54.476Z,96662.53
2019-04-03T06:35:26.177Z,96662.55
2019-04-03T06:37:59.061Z,96663.81
2019-04-03T06:40:31.142Z,96657.16
2019-04-03T06:43:03.438Z,96650.02
2019-04-03T06:45:35.544Z,96642.13
2019-04-03T06:48:07.556Z,96637.88
2019-04-03T06:50:40.188Z,96636.52
2019-04-03T06:53:12.526Z,96638.20
2019-04-03T06:55:44.763Z,96639.24
2019-04-03T06:58:16.854Z,96633.03
2019-04-03T07:00:49.389Z,96626.57
2019-04-03T07:03:22.807Z,96627.85
2019-04-03T07:05:55.363Z,96636.59
2019-04-03T07:08:32.542Z,96639.97
2019-04-03T07:11:01.444Z,96635.36
2019-04-03T07:13:33.574Z,96630.72
2019-04-03T07:16:05.657Z,96638.38
2019-04-03T07:18:37.684Z,96636.22
2019-04-03T07:21:10.590Z,96634.55
2019-04-03T07:23:43.780Z,96634.96
2019-04-03T07:26:15.809Z,96636.48
2019-04-03T07:28:47.831Z,96639.55
2019-04-03T07:31:23.240Z,96640.86
2019-04-03T07:33:54.075Z,96636.34
2019-04-03T07:36:27.192Z,96639.89
2019-04-03T07:38:59.223Z,96631.38
2019-04-03T07:41:31.321Z,96628.42
2019-04-03T07:44:03.767Z,96631.94
2019-04-03T07:46:35.869Z,96628.52
2019-04-03T07:49:09.058Z,96625.58
2019-04-03T07:51:43.247Z,96628.14
2019-04-03T07:54:15.948Z,96622.45
2019-04-03T07:56:48.064Z,96616.95
2019-04-03T07:59:20.449Z,96614.67
2019-04-03T08:01:52.470Z,96608.73
2019-04-03T08:04:25.909Z,96608.87
2019-04-03T08:06:58.412Z,96608.98
2019-04-03T08:09:30.561Z,96606.99
2019-04-03T08:12:04.182Z,96605.75
2019-04-03T08:14:36.317Z,96593.97
2019-04-03T08:17:08.841Z,96592.97
2019-04-03T08:19:40.954Z,96587.72
2019-04-03T08:22:13.462Z,96585.02
2019-04-03T08:24:45.469Z,96577.70
2019-04-03T08:27:17.493Z,96578.45
2019-04-03T08:29:49.775Z,96579.37
2019-04-03T08:32:23.175Z,96582.44
2019-04-03T08:34:55.526Z,96585.01
2019-04-03T08:37:31.356Z,96581.32
2019-04-03T08:40:03.645Z,96581.03
2019-04-03T08:42:36.220Z,96571.69
2019-04-03T08:45:10.363Z,96575.91
2019-04-03T08:47:45.917Z,96569.58
2019-04-03T08:50:18.801Z,96565.13
2019-04-03T08:52:51.310Z,96560.06
2019-04-03T08:55:24.901Z,96562.89
2019-04-03T08:57:57.467Z,96556.15
2019-04-03T09:00:32.080Z,96548.95
2019-04-03T09:03:04.414Z,96543.95
2019-04-03T09:05:37.479Z,96539.92
2019-04-03T09:08:09.751Z,96541.59
2019-04-03T09:10:42.534Z,96540.55
2019-04-03T09:13:17.664Z,96536.44
2019-04-03T09:15:49.018Z,96534.16
2019-04-03T09:18:21.431Z,96534.84
2019-04-03T09:20:53.761Z,96532.66
2019-04-03T09:23:26.610Z,96529.09
2019-04-03T09:26:02.437Z,96524.40
2019-04-03T09:28:33.877Z,96521.62
2019-04-03T09:31:06.157Z,96511.23
2019-04-03T09:33:38.788Z,96517.36
2019-04-03T09:36:10.871Z,96501.53
2019-04-03T09:38:43.215Z,96502.23
2019-04-03T09:41:15.345Z,96503.53
2019-04-03T09:43:48.141Z,96496.98
2019-04-03T09:46:20.158Z,96492.17
2019-04-03T09:48:53.097Z,96491.22
2019-04-03T09:51:25.271Z,96489.87
2019-04-03T09:53:58.115Z,96482.02
2019-04-03T09:56:31.061Z,96481.28
2019-04-03T09:59:05.974Z,96474.31
2019-04-03T10:01:38.656Z,96466.91
2019-04-03T10:04:11.147Z,96468.88
2019-04-03T10:06:43.241Z,96471.35
2019-04-03T10:09:15.367Z,96468.16
2019-04-03T10:11:50.568Z,96457.58
2019-04-03T10:14:21.718Z,96456.62
2019-04-03T10:16:54.085Z,96453.53
2019-04-03T10:19:26.110Z,96449.52
2019-04-03T10:21:58.122Z,96447.06
2019-04-03T10:24:31.738Z,96439.50
2019-04-03T10:27:04.002Z,96432.38
2019-04-03T10:29:36.527Z,96428.00
2019-04-03T10:32:09.141Z,96424.25
2019-04-03T10:34:41.397Z,96413.04
2019-04-03T10:37:15.148Z,96410.98
2019-04-03T10:39:47.905Z,96410.73
2019-04-03T10:42:20.701Z,96413.13
2019-04-03T10:44:52.729Z,96408.42
2019-04-03T10:47:30.275Z,96402.89
2019-04-03T10:49:59.267Z,96397.55
2019-04-03T10:52:31.639Z,96397.42
2019-04-03T10:55:04.330Z,96398.93
2019-04-03T10:57:37.216Z,96388.02
2019-04-03T11:00:10.938Z,96383.77
2019-04-03T11:02:43.118Z,96378.59
2019-04-03T11:05:17.245Z,96377.55
2019-04-03T11:07:49.729Z,96368.04
2019-04-03T11:10:24.124Z,96364.39
2019-04-03T11:12:56.062Z,96353.06
2019-04-03T11:15:28.491Z,96354.35
2019-04-03T11:18:00.604Z,96348.25
2019-04-03T11:20:32.867Z,96344.96
2019-04-03T11:23:08.116Z,96340.05
2019-04-03T11:25:41.907Z,96340.68
2019-04-03T11:28:14.250Z,96331.88
2019-04-03T11:30:46.761Z,96329.60
2019-04-03T11:33:19.154Z,96327.00
2019-04-03T11:35:53.320Z,96320.68
2019-04-03T11:38:28.195Z,96319.23
2019-04-03T11:41:11.475Z,96317.46
2019-04-03T11:43:33.132Z,96314.05
2019-04-03T11:46:05.599Z,96311.48
2019-04-03T11:48:38.065Z,96309.04
2019-04-03T11:51:10.140Z,96308.91
2019-04-03T11:53:45.337Z,96300.40
2019-04-03T11:56:16.515Z,96293.65
2019-04-03T11:58:51.337Z,96295.45
2019-04-03T12:01:22.979Z,96294.80
2019-04-03T12:03:55.434Z,96286.31
2019-04-03T12:06:27.879Z,96282.16
2019-04-03T12:09:01.172Z,96281.45
2019-04-03T12:11:37.629Z,96268.68
2019-04-03T12:14:09.579Z,96266.82
2019-04-03T12:16:41.971Z,96271.61
2019-04-03T12:19:14.381Z,96264.83
2019-04-03T12:21:48.293Z,96257.64
2019-04-03T12:24:20.847Z,96249.52
2019-04-03T12:26:55.445Z,96253.67
2019-04-03T12:29:27.591Z,96238.78
2019-04-03T12:32:02.619Z,96234.82
2019-04-03T12:34:36.735Z,96227.47
2019-04-03T12:37:08.258Z,96223.11
2019-04-03T12:39:41.202Z,96214.98
2019-04-03T12:42:13.527Z,96210.86
2019-04-03T12:44:46.140Z,96204.98
2019-04-03T12:47:18.552Z,96208.35
2019-04-03T12:49:53.386Z,96206.39
2019-04-03T12:52:24.794Z,96197.69
2019-04-03T12:54:56.917Z,96197.30
2019-04-03T12:57:32.333Z,96193.16
2019-04-03T13:00:03.062Z,96190.28
2019-04-03T13:02:35.247Z,96182.89
2019-04-03T13:05:09.840Z,96182.95
2019-04-03T13:07:41.943Z,96187.86
2019-04-03T13:10:16.845Z,96184.58
2019-04-03T13:12:50.294Z,96178.06
2019-04-03T13:15:22.496Z,96172.33
2019-04-03T13:17:54.904Z,96171.27
2019-04-03T13:20:26.992Z,96164.50
2019-04-03T13:23:00.387Z,96159.70
2019-04-03T13:25:33.147Z,96158.36
2019-04-03T13:28:05.491Z,96150.09
2019-04-03T13:30:37.940Z,96148.19
2019-04-03T13:33:10.131Z,96136.02
2019-04-03T13:35:42.551Z,96128.92
2019-04-03T13:38:15.194Z,96130.06
2019-04-03T13:40:48.433Z,96124.61
2019-04-03T13:43:22.329Z,96117.59
2019-04-03T13:45:55.047Z,96118.91
2019-04-03T13:48:27.868Z,96114.31
2019-04-03T13:51:01.139Z,96114.05
2019-04-03T13:53:34.200Z,96106.10
2019-04-03T13:56:08.354Z,96096.45
2019-04-03T13:58:40.661Z,96094.16
2019-04-03T14:01:12.739Z,96088.20
2019-04-03T14:03:45.300Z,96079.75
2019-04-03T14:06:17.615Z,96078.03
2019-04-03T14:08:50.311Z,96073.39
2019-04-03T14:11:23.257Z,96065.17
2019-04-03T14:13:55.319Z,96062.69
2019-04-03T14:16:27.824Z,96066.76
2019-04-03T14:19:00.413Z,96067.94
2019-04-03T14:21:35.626Z,96057.99
2019-04-03T14:24:09.256Z,96053.70
2019-04-03T14:26:44.293Z,96051.86
2019-04-03T14:29:16.816Z,96043.34
2019-04-03T14:31:49.649Z,96039.61
2019-04-03T14:34:23.268Z,96036.66
2019-04-03T14:36:56.035Z,96036.88
2019-04-03T14:39:28.672Z,96033.31
2019-04-03T14:42:01.106Z,96029.85
2019-04-03T14:44:34.085Z,96022.36
2019-04-03T14:47:06.178Z,96018.31
2019-04-03T14:49:38.922Z,96013.50
2019-04-03T14:52:11.031Z,96007.49
2019-04-03T14:54:43.966Z,95996.89
2019-04-03T14:57:22.469Z,95992.40
2019-04-03T14:59:50.091Z,95984.81
2019-04-03T15:02:23.767Z,95985.96
2019-04-03T15:04:56.580Z,95985.16
2019-04-03T15:07:29.104Z,95979.68
2019-04-03T15:10:01.619Z,95976.05
2019-04-03T15:12:38.679Z,95971.18
2019-04-03T15:15:10.785Z,95970.26
2019-04-03T15:17:42.812Z,95972.57
2019-04-03T15:20:17.918Z,95970.20
2019-04-03T15:22:51.738Z,95958.27
2019-04-03T15:25:24.242Z,95954.02
2019-04-03T15:27:58.682Z,95949.02
2019-04-03T15:30:30.481Z,95951.28
2019-04-03T15:33:02.926Z,95942.94
2019-04-03T15:35:35.022Z,95939.98
2019-04-03T15:38:07.767Z,95934.65
2019-04-03T15:40:39.869Z,95932.45
2019-04-03T15:43:15.710Z,95924.88
2019-04-03T15:45:46.552Z,95924.09
2019-04-03T15:48:21.467Z,95920.45
2019-04-03T15:50:52.651Z,95918.39
2019-04-03T15:53:25.063Z,95911.19
2019-04-03T15:55:57.553Z,95905.27
2019-04-03T15:58:29.653Z,95908.97
2019-04-03T16:01:02.835Z,95904.94
2019-04-03T16:03:35.481Z,95907.28
2019-04-03T16:06:07.708Z,95906.26
2019-04-03T16:08:40.366Z,95904.78
2019-04-03T16:11:12.472Z,95899.93
2019-04-03T16:13:44.793Z,95885.74
2019-04-03T16:16:18.390Z,95886.81
2019-04-03T16:18:50.650Z,95880.34
2019-04-03T16:21:24.299Z,95870.42
2019-04-03T16:23:57.232Z,95864.74
2019-04-03T16:26:29.681Z,95859.59
2019-04-03T16:29:02.035Z,95859.23
2019-04-03T16:31:34.204Z,95851.84
2019-04-03T16:34:09.396Z,95850.73
2019-04-03T16:36:41.360Z,95847.89
2019-04-03T16:39:13.605Z,95845.92
2019-04-03T16:41:46.369Z,95842.13
2019-04-03T16:44:19.273Z,95842.36
2019-04-03T16:46:51.698Z,95838.03
2019-04-03T16:49:24.042Z,95836.33
2019-04-03T16:51:56.840Z,95832.63
2019-04-03T16:54:30.447Z,95829.39
2019-04-03T16:57:03.689Z,95823.17
2019-04-03T16:59:37.232Z,95816.83
2019-04-03T17:02:10.176Z,95812.62
2019-04-03T17:04:42.919Z,95809.22
2019-04-03T17:07:15.526Z,95816.55
2019-04-03T17:09:47.685Z,95819.80
2019-04-03T17:12:19.720Z,95815.27
2019-04-03T17:14:52.907Z,95803.20
2019-04-03T17:17:26.873Z,95799.14
2019-04-03T17:19:59.870Z,95801.34
2019-04-03T17:22:32.457Z,95797.58
2019-04-03T17:25:05.123Z,95797.52
2019-04-03T17:27:37.868Z,95794.45
2019-04-03T17:30:11.401Z,95789.55
2019-04-03T17:32:43.817Z,95787.41
2019-04-03T17:35:16.642Z,95789.26
2019-04-03T17:37:49.370Z,95792.30
2019-04-03T17:40:22.641Z,95796.30
2019-04-03T17:42:55.147Z,95794.16
2019-04-03T17:45:27.559Z,95799.91
2019-04-03T17:48:00.384Z,95800.54
2019-04-03T17:50:32.900Z,95806.41
2019-04-03T17:53:06.600Z,95809.35
2019-04-03T17:55:41.182Z,95810.53
2019-04-03T17:58:16.405Z,95805.34
2019-04-03T18:00:47.450Z,95811.23
2019-04-03T18:03:20.697Z,95811.70
2019-04-03T18:05:52.726Z,95814.77
2019-04-03T18:08:25.172Z,95818.09
2019-04-03T18:10:57.577Z,95823.60
2019-04-03T18:13:29.673Z,95819.39
2019-04-03T18:16:02.199Z,95820.59
2019-04-03T18:18:34.720Z,95829.25
2019-04-03T18:21:07.425Z,95827.22
2019-04-03T18:23:39.447Z,95835.92
2019-04-03T18:26:11.883Z,95844.80
2019-04-03T18:28:44.630Z,95848.84
2019-04-03T18:31:17.720Z,95855.81
2019-04-03T18:33:50.119Z,95864.44
2019-04-03T18:36:22.949Z,95870.52
2019-04-03T18:38:55.452Z,95875.91
2019-04-03T18:41:27.987Z,95918.15
2019-04-03T18:44:01.008Z,95951.50
2019-04-03T18:46:36.329Z,95938.87
2019-04-03T18:49:07.268Z,95961.02
2019-04-03T18:51:40.110Z,95992.70
2019-04-03T18:54:13.066Z,95996.27
2019-04-03T18:56:45.921Z,95995.11
2019-04-03T18:59:18.659Z,96012.27
2019-04-03T19:01:51.071Z,96037.97
2019-04-03T19:04:23.176Z,96045.25
2019-04-03T19:06:56.411Z,96037.56
2019-04-03T19:09:29.112Z,96039.78
2019-04-03T19:12:08.421Z,96068.70
2019-04-03T19:14:36.005Z,96084.15
2019-04-03T19:17:09.772Z,96077.77
2019-04-03T19:19:42.609Z,96069.57
2019-04-03T19:22:15.827Z,96061.33
2019-04-03T19:24:47.921Z,96062.50
2019-04-03T19:27:20.014Z,96077.48
2019-04-03T19:29:52.431Z,96079.27
2019-04-03T19:32:24.892Z,96078.79
2019-04-03T19:34:57.337Z,96088.47
2019-04-03T19:37:29.381Z,96102.31
2019-04-03T19:40:02.215Z,96121.77
2019-04-03T19:42:34.958Z,96121.11
2019-04-03T19:45:08.312Z,96120.46
2019-04-03T19:47:41.542Z,96116.47
2019-04-03T19:50:14.607Z,96118.88
2019-04-03T19:52:47.222Z,96127.20
2019-04-03T19:55:23.162Z,96135.37
2019-04-03T19:57:55.794Z,96141.63
2019-04-03T20:00:28.348Z,96136.97
2019-04-03T20:03:01.228Z,96141.27
2019-04-03T20:05:33.778Z,96132.09
2019-04-03T20:08:06.838Z,96140.47
2019-04-03T20:10:39.440Z,96150.27
2019-04-03T20:13:12.630Z,96157.16
2019-04-03T20:15:44.701Z,96160.55
2019-04-03T20:18:18.363Z,96169.22
2019-04-03T20:20:51.157Z,96178.20
2019-04-03T20:23:23.262Z,96173.83
2019-04-03T20:25:55.791Z,96173.98
2019-04-03T20:28:28.308Z,96172.20
2019-04-03T20:31:00.725Z,96172.66
2019-04-03T20:33:33.097Z,96168.64
2019-04-03T20:36:06.423Z,96174.48
2019-04-03T20:38:38.808Z,96180.86
2019-04-03T20:41:10.909Z,96187.02
2019-04-03T20:43:47.183Z,96191.97
2019-04-03T20:46:18.737Z,96207.70
2019-04-03T20:48:51.128Z,96206.41
2019-04-03T20:51:23.099Z,96217.13
2019-04-03T20:53:56.381Z,96218.38
2019-04-03T20:56:29.590Z,96220.37
2019-04-03T20:59:03.253Z,96223.13
2019-04-03T21:01:36.027Z,96225.51
2019-04-03T21:04:08.698Z,96231.45
2019-04-03T21:06:42.042Z,96236.58
2019-04-03T21:09:14.817Z,96237.48
2019-04-03T21:11:46.761Z,96238.41
2019-04-03T21:14:19.328Z,96230.09
2019-04-03T21:16:51.268Z,96234.90
2019-04-03T21:19:23.615Z,96235.29
2019-04-03T21:21:55.545Z,96243.53
2019-04-03T21:24:28.308Z,96257.55
2019-04-03T21:27:00.273Z,96263.61
2019-04-03T21:29:32.213Z,96260.47
2019-04-03T21:32:04.625Z,96253.73
2019-04-03T21:34:36.965Z,96259.62
2019-04-03T21:37:10.295Z,96258.67
2019-04-03T21:39:43.815Z,96253.43
2019-04-03T21:42:16.767Z,96257.73
2019-04-03T21:44:48.735Z,96255.05
2019-04-03T21:47:21.972Z,96244.20
2019-04-03T21:49:54.326Z,96243.39
2019-04-03T21:52:26.991Z,96235.17
2019-04-03T21:54:59.364Z,96236.16
2019-04-03T21:57:32.252Z,96235.83
2019-04-03T22:00:06.119Z,96240.31
2019-04-03T22:02:38.255Z,96241.77
2019-04-03T22:05:10.919Z,96241.73
2019-04-03T22:07:43.266Z,96247.20
2019-04-03T22:10:17.184Z,96243.84
2019-04-03T22:12:49.122Z,96252.70
2019-04-03T22:15:21.896Z,96250.67
2019-04-03T22:17:54.141Z,96250.23
2019-04-03T22:20:26.073Z,96251.55
2019-04-03T22:22:58.319Z,96253.04
2019-04-03T22:25:30.264Z,96256.81
2019-04-03T22:28:03.229Z,96257.28
2019-04-03T22:30:35.157Z,96258.39
2019-04-03T22:33:07.127Z,96262.89
2019-04-03T22:35:39.872Z,96254.64
2019-04-03T22:38:12.124Z,96246.13
2019-04-03T22:40:44.791Z,96244.64
2019-04-03T22:43:17.156Z,96259.65
2019-04-03T22:45:50.726Z,96261.97
2019-04-03T22:48:23.081Z,96264.84
2019-04-03T22:50:55.248Z,96266.25
2019-04-03T22:53:27.499Z,96264.89
2019-04-03T22:55:59.431Z,96263.41
2019-04-03T22:58:32.778Z,96265.47
2019-04-03T23:01:05.060Z,96256.31
2019-04-03T23:03:37.347Z,96262.54
2019-04-03T23:06:09.696Z,96259.77
2019-04-03T23:08:41.733Z,96256.16
2019-04-03T23:11:14.451Z,96258.84
2019-04-03T23:13:46.402Z,96258.67
2019-04-03T23:16:18.378Z,96250.89
2019-04-03T23:18:50.661Z,96249.31
2019-04-03T23:21:23.893Z,96254.79
2019-04-03T23:23:57.968Z,96248.37
2019-04-03T23:26:31.742Z,96249.41
2019-04-03T23:29:05.134Z,96245.11
2019-04-03T23:31:39.154Z,96241.59
2019-04-03T23:34:11.230Z,96240.64
2019-04-03T23:36:43.199Z,96237.14
2019-04-03T23:39:15.913Z,96234.93
2019-04-03T23:41:48.282Z,96236.91
2019-04-03T23:44:20.259Z,96236.80
2019-04-03T23:46:52.732Z,96242.57
2019-04-03T23:49:25.150Z,96244.37
2019-04-03T23:51:58.956Z,96240.11
2019-04-03T23:54:33.689Z,96230.42
2019-04-03T23:57:05.735Z,96223.56
2019-04-03T23:59:37.718Z,96226.59
